Ridge Farm, IL (61870)

12:52 PM CDT on July 26, 2016 (GMT -0500)
Vermilion County Emergency Management Agency | | Change Station

Elev 655 ft 40.08 °N, 87.63 °W | Updated 0 second ago

Clear
Clear
81.2 °F
Feels Like 92 °F
N
6.9
Wind Variable Wind from East
Gusts 6.9 mph

Today
High -- | Low -- °F
--% Chance of Precip.
Yesterday
High -- | Low -- °F
Precip. -- in
Pressure 30.07 in
Visibility 10.0 miles
Clouds Clear
Heat Index 92 °F
Dew Point 81 °F
Humidity 100%
Rainfall 0.00 in
Snow Depth Not available.
5:44 AM 8:09 PM
Waning Gibbous, 52% visible
METAR KPRG 261735Z AUTO 12004KT 10SM CLR 25/21 A3007 RMK AO2 T02450206
Pressure 30.07 in
Visibility 10.0 miles
Clouds Clear
Heat Index 92 °F
Dew Point 81 °F
Humidity 100%
Rainfall 0.00 in
Snow Depth Not available.
5:44 AM 8:09 PM
Waning Gibbous, 52% visible
METAR KPRG 261735Z AUTO 12004KT 10SM CLR 25/21 A3007 RMK AO2 T02450206

10-Day Weather Forecast

Almanac

Astronomy

Jul. 26, 2016 Rise Set
Actual Time
Civil Twilight
Nautical Twilight
Astronomical Twilight
Moon
Length of Visible Light
Length of Day
Tomorrow will be .
, % of the Moon is Illuminated

Today's Extremes

State Highs State Lows

Community

WunderPhotos

Upload Photos

1,927,650 photos uploaded!

WunderBlog® & News

Nearby

Air Quality

  Air Quality AQ Index Pollutant
Not available.

Snow Depth

Station Depth Elevation

Earthquake Activity

City Distance Mag. Time & Date
Minimum magnitude displayed is 2.5.

Coastal Water Temperatures

Place Temperature

Stations

Nearby Weather Stations

Station Location Temp. Windchill Dew Point Humidity Wind Precip. Elev Updated Type
                   

Watches & Warnings

There are currently no watches in effect.